Latest Coastal Weather Observations for Darwin Harbour

IDD60701

Issued at 5:31 pm CST Sunday 22 January 2017 (issued every 10 minutes, with the page automatically refreshed every 10 minutes)

About coastal observations | Map of coastal stations | Coastal observations for NT | Marine services | Other Formats
Station Details ID: 014072 Name: DARWIN NTC AWS Lat: -12.47 Lon: 130.85 Height: 0.0 m
Data from the previous 72 hours. | See also: Recent months for locations in Northern Territory
Date/Time
CST
Temp
°C
Wind Pressure Rain since
9am
mm
Weather Cloud Vis
km
Sea
Height
m
Swell
Dir  Spd
kts
Gust
kts
hPa Trend Height
m
Period
s
Dir
22/05:00pm 28.3 W 10 14 1005.3 - - - - - - - - -
22/04:30pm 27.0 W 13 18 1005.2 - - - - - - - - -
22/04:11pm 26.9 W 15 25 1005.1 - - - - - - - - -
22/04:00pm 27.1 WSW 20 28 1005.1 - - - - - - - - -
22/03:30pm 30.5 W 15 20 1004.4 - - - - - - - - -
22/03:00pm 30.7 W 14 21 1004.8 - - - - - - - - -
22/02:30pm 30.6 W 14 20 1005.1 - - - - - - - - -
22/02:00pm 30.5 W 15 20 1005.5 - - - - - - - - -
22/01:30pm 30.4 W 13 18 1006.2 - - - - - - - - -
22/01:00pm 30.8 W 11 14 1006.7 - - - - - - - - -
22/12:30pm 30.8 W 10 13 1007.2 - - - - - - - - -
22/12:00pm 30.6 WSW 12 16 1007.5 - - - - - - - - -
22/11:30am 30.4 WSW 11 14 1007.7 - - - - - - - - -
22/11:00am 30.2 W 11 15 1007.9 - - - - - - - - -
22/10:30am 29.8 W 12 14 1008.3 - - - - - - - - -
22/10:00am 29.6 WSW 10 13 1008.4 - - - - - - - - -
22/09:30am 29.4 WSW 8 10 1008.6 - - - - - - - - -
22/09:00am 29.0 WSW 5 8 1008.9 - - - - - - - - -
22/08:30am 28.8 WSW 5 7 1009.0 - - - - - - - - -
22/08:00am 28.7 W 6 9 1008.7 - - - - - - - - -
22/07:30am 28.6 W 7 8 1008.6 - - - - - - - - -
22/07:00am 28.5 W 7 10 1008.4 - - - - - - - - -
22/06:30am 28.5 W 7 10 1008.0 - - - - - - - - -
22/06:00am 28.4 W 8 11 1007.7 - - - - - - - - -
22/05:30am 28.3 W 8 12 1007.6 - - - - - - - - -
22/05:00am 28.2 W 8 12 1007.4 - - - - - - - - -
22/04:30am 28.4 W 9 13 1007.4 - - - - - - - - -
22/04:00am 28.4 W 7 10 1007.6 - - - - - - - - -
22/03:30am 27.4 WNW 5 8 1007.8 - - - - - - - - -
22/03:00am 28.0 W 7 10 1008.1 - - - - - - - - -
22/02:30am 27.7 W 6 9 1008.2 - - - - - - - - -
22/02:00am 27.6 W 8 11 1008.1 - - - - - - - - -
22/01:30am 27.7 W 7 10 1008.2 - - - - - - - - -
22/01:00am 27.3 W 6 8 1008.6 - - - - - - - - -
22/12:30am 27.2 W 5 8 1008.9 - - - - - - - - -
22/12:00am 27.2 W 5 7 1009.2 - - - - - - - - -
 
Date/Time
CST
Temp
°C
Wind Pressure Rain since
9am
mm
Weather Cloud Vis
km
Sea
Height
m
Swell
Dir  Spd
kts
Gust
kts
hPa Trend Height
m
Period
s
Dir
21/11:30pm 26.7 W 5 7 1009.6 - - - - - - - - -
21/11:00pm 26.6 SW 9 12 1009.7 - - - - - - - - -
21/10:30pm 27.0 SW 8 11 1009.8 - - - - - - - - -
21/10:00pm 27.2 W 8 16 1009.8 - - - - - - - - -
21/09:30pm 27.8 WNW 8 14 1009.3 - - - - - - - - -
21/09:00pm 28.4 WNW 5 8 1009.1 - - - - - - - - -
21/08:30pm 28.6 WNW 6 9 1008.9 - - - - - - - - -
21/08:00pm 28.3 NW 4 7 1008.5 - - - - - - - - -
21/07:30pm 28.6 WNW 8 11 1008.2 - - - - - - - - -
21/07:00pm 28.2 W 11 16 1007.8 - - - - - - - - -
21/06:30pm 29.3 WNW 11 13 1007.3 - - - - - - - - -
21/06:00pm 29.7 WNW 10 13 1007.2 - - - - - - - - -
21/05:30pm 29.7 W 8 12 1006.4 - - - - - - - - -
21/05:00pm 29.8 W 9 13 1006.5 - - - - - - - - -
21/04:30pm 29.6 W 10 13 1006.4 - - - - - - - - -
21/04:00pm 29.7 WNW 6 12 1006.6 - - - - - - - - -
21/03:30pm 29.2 WNW 5 9 1006.8 - - - - - - - - -
21/03:00pm 28.9 SW 2 3 1007.1 - - - - - - - - -
21/02:30pm 28.2 WSW 2 4 1007.3 - - - - - - - - -
21/02:00pm 27.8 W 3 7 1007.7 - - - - - - - - -
21/01:30pm 27.4 WSW 5 7 1007.9 - - - - - - - - -
21/01:00pm 26.9 SW 7 9 1008.2 - - - - - - - - -
21/12:30pm 26.7 SW 6 8 1008.8 - - - - - - - - -
21/12:00pm 26.4 SW 3 5 1009.0 - - - - - - - - -
21/11:30am 25.9 SW 3 5 1009.6 - - - - - - - - -
21/11:00am 26.0 SSW 4 6 1010.2 - - - - - - - - -
21/10:30am 25.5 SSE 4 6 1010.4 - - - - - - - - -
21/10:00am 25.5 SSE 3 6 1010.6 - - - - - - - - -
21/09:30am 25.4 SSE 4 6 1010.8 - - - - - - - - -
21/09:00am 25.5 S 3 5 1010.7 - - - - - - - - -
21/08:30am 25.2 SSE 2 3 1010.6 - - - - - - - - -
21/08:00am 25.3 SE 4 5 1010.4 - - - - - - - - -
21/07:30am 25.1 SW 7 9 1010.0 - - - - - - - - -
21/07:00am 25.1 WSW 11 18 1009.5 - - - - - - - - -
21/06:37am 26.1 WSW 10 24 1009.2 - - - - - - - - -
21/06:30am 26.6 NW 3 7 1008.9 - - - - - - - - -
21/06:00am 26.9 NNW 3 6 1008.4 - - - - - - - - -
21/05:30am 27.7 WSW 2 4 1007.7 - - - - - - - - -
21/05:00am 27.9 WSW 2 3 1007.6 - - - - - - - - -
21/04:30am 27.6 WSW 3 5 1007.2 - - - - - - - - -
21/04:00am 26.8 SW 9 15 1007.3 - - - - - - - - -
21/03:30am 28.1 W 6 10 1007.5 - - - - - - - - -
21/03:00am 28.1 N 4 7 1007.3 - - - - - - - - -
21/02:30am 28.2 N 4 8 1007.6 - - - - - - - - -
21/02:00am 28.3 N 3 6 1007.7 - - - - - - - - -
21/01:30am 28.3 NNW 3 6 1007.9 - - - - - - - - -
21/01:00am 28.5 NW 4 7 1008.2 - - - - - - - - -
21/12:30am 28.7 NW 3 8 1008.5 - - - - - - - - -
21/12:00am 28.8 NW 4 7 1008.9 - - - - - - - - -
 
Date/Time
CST
Temp
°C
Wind Pressure Rain since
9am
mm
Weather Cloud Vis
km
Sea
Height
m
Swell
Dir  Spd
kts
Gust
kts
hPa Trend Height
m
Period
s
Dir
20/11:30pm 29.0 WNW 6 8 1009.1 - - - - - - - - -
20/11:00pm 28.8 WNW 6 8 1009.0 - - - - - - - - -
20/10:30pm 29.0 WNW 9 12 1008.6 - - - - - - - - -
20/10:00pm 28.8 WNW 7 10 1008.5 - - - - - - - - -
20/09:30pm 28.4 WNW 5 8 1008.3 - - - - - - - - -
20/09:00pm 28.6 W 6 10 1008.0 - - - - - - - - -
20/08:30pm 28.5 W 8 11 1007.6 - - - - - - - - -
20/08:00pm 28.5 W 8 11 1007.2 - - - - - - - - -
20/07:30pm 28.5 W 9 12 1007.1 - - - - - - - - -
20/07:00pm 28.4 W 7 9 1006.9 - - - - - - - - -
20/06:30pm 28.4 W 9 12 1006.6 - - - - - - - - -
20/06:00pm 28.5 W 9 13 1006.5 - - - - - - - - -
20/05:30pm 28.3 W 9 13 1006.6 - - - - - - - - -
20/05:00pm 27.9 W 9 12 1006.4 - - - - - - - - -
20/04:30pm 28.0 W 11 14 1006.2 - - - - - - - - -
20/04:00pm 27.9 W 9 11 1006.1 - - - - - - - - -
20/03:30pm 27.8 W 10 14 1006.3 - - - - - - - - -
20/03:00pm 27.2 WSW 11 15 1006.5 - - - - - - - - -
20/02:30pm 27.4 W 11 15 1006.9 - - - - - - - - -
20/02:00pm 26.5 W 10 14 1007.4 - - - - - - - - -
20/01:30pm 26.3 W 12 19 1007.8 - - - - - - - - -
20/01:00pm 26.3 W 14 21 1008.1 - - - - - - - - -
20/12:30pm 26.4 W 8 11 1008.2 - - - - - - - - -
20/12:00pm 26.3 W 7 10 1008.4 - - - - - - - - -
20/11:30am 26.3 W 8 11 1008.6 - - - - - - - - -
20/11:00am 27.1 W 10 13 1009.1 - - - - - - - - -
20/10:30am 27.3 W 6 9 1008.9 - - - - - - - - -
20/10:00am 27.8 WNW 4 8 1008.9 - - - - - - - - -
20/09:30am 27.0 WNW 4 7 1009.1 - - - - - - - - -
20/09:00am 26.8 NNE 1 3 1009.1 - - - - - - - - -
20/08:30am 26.3 NNE 2 4 1008.7 - - - - - - - - -
20/08:00am 26.3 NNE 1 2 1008.5 - - - - - - - - -
20/07:30am 25.9 NNE 2 4 1008.3 - - - - - - - - -
20/07:00am 26.2 NW 1 3 1007.9 - - - - - - - - -
20/06:30am 25.9 WSW 1 3 1007.6 - - - - - - - - -
20/06:00am 25.4 CALM 0 1 1007.2 - - - - - - - - -
20/05:30am 25.2 NE 2 4 1007.0 - - - - - - - - -
20/05:00am 25.4 N 3 4 1006.7 - - - - - - - - -
20/04:30am 25.3 NW 5 9 1007.2 - - - - - - - - -
20/04:00am 26.8 WSW 10 18 1006.8 - - - - - - - - -
20/03:30am 28.1 N 3 6 1006.4 - - - - - - - - -
20/03:00am 27.7 NE 3 6 1006.6 - - - - - - - - -
20/02:30am 27.8 N 2 5 1007.1 - - - - - - - - -
20/02:00am 27.8 NNW 4 8 1007.1 - - - - - - - - -
20/01:30am 27.9 WNW 7 12 1007.2 - - - - - - - - -
20/01:00am 28.8 NNW 5 10 1007.3 - - - - - - - - -
20/12:30am 28.6 NNW 3 6 1007.4 - - - - - - - - -
20/12:00am 29.1 NNW 4 7 1007.7 - - - - - - - - -
 
Date/Time
CST
Temp
°C
Wind Pressure Rain since
9am
mm
Weather Cloud Vis
km
Sea
Height
m
Swell
Dir  Spd
kts
Gust
kts
hPa Trend Height
m
Period
s
Dir
19/11:30pm 29.0 NNW 2 4 1008.2 - - - - - - - - -
19/11:00pm 29.0 NNW 3 5 1008.2 - - - - - - - - -
19/10:30pm 29.0 NW 3 4 1008.2 - - - - - - - - -
19/10:00pm 29.0 NW 4 6 1008.2 - - - - - - - - -
19/09:30pm 29.0 NW 4 5 1008.0 - - - - - - - - -
19/09:00pm 28.8 NW 3 5 1007.7 - - - - - - - - -
19/08:30pm 28.7 NW 4 8 1007.7 - - - - - - - - -
19/08:00pm 28.5 NW 4 7 1007.7 - - - - - - - - -
19/07:30pm 28.2 W 2 3 1007.4 - - - - - - - - -
19/07:00pm 28.0 W 3 5 1006.9 - - - - - - - - -
19/06:30pm 27.2 WSW 7 10 1006.5 - - - - - - - - -
19/06:00pm 26.9 WSW 11 14 1006.3 - - - - - - - - -

Other Formats:

Comma delimited format used in spreadsheet applications
http://www.bom.gov.au/fwo/IDD60701/IDD60701.95122.axf

JavaScript Object Notation format (JSON) in row-major order
http://www.bom.gov.au/fwo/IDD60701/IDD60701.95122.json